Strona główna
METAR-TAF:

METAR-TAF

Lotnisko :

Hettinger Municipal Airport

Hettinger, Dakota Północna, Stany Zjednoczone

Szerokość geograficzna: 46-00-38N, Długość geograficzna: 102-38-59W, wysokość: 824 m

Aktualna obserwacja pogody

Raport powstał 34 minut temu, godzina 10:53 UTC
Cisza
Temperatura 9°C
Wilgotność 93%
Ciśnienie 1018 hPa
Widzialność: 11.3 km
Przerywane chmury na wysokości 4000 ft

METAR: KHEI 171053Z AUTO 00000KT 7SM BKN040 09/08 A3006 RMK AO2 SLP172 T00890078

czas: 05:27 (11:27 UTC)


TAF: brakujący

Obserwacja i prognoza pogody dla ponad 4000 lotnisk (raport METAR i TAF).

Dostępne stacje oznaczono żółtymi i czerwonymi punktami na mapie.

Najedź kursorem aby zobaczyć nazwę stacji.

Kliknij aby zobaczyć obserwacje i prognozy pogody.

Aby zmienić mapę: kliknij na zielony przycisk z czarnym krzyżykiem, aby powiększyć; na zielony przycisk z myślnikiem, aby pomniejszyć; na zielone strzałki, aby przejść do map sąsiednich.


METAR-TAF: